Mars — XPC8385 — position and weather

sailwx.info

Track history (hours):
 
Tides and Currents Weather Stations Pressure Air Temp Water Temp Dewpoint Dewpoint Depression Visibility Wind Speed Wind Dir Waves Ship Positions

Mars

Last reported at 2014-Jul-29 10:24 UTC. Time now 2014-Jul-29 10:51 UTC.
Position N 55°17' E 014°48'.

Length 14 m; draft 1.7 m.

Type: Pilot. MMSI: 219001058.

Date/timePositionNaut miles runAvg speedWind from/ knotsBaromVisibWave heightAir tempDewpointWater temp
2014-Jul-29 10:24N 55°17' E 014°48'0 0.0
2014-Jul-29 09:23N 55°17' E 014°48'0 0.0
2014-Jul-29 08:33N 55°17' E 014°48'0 0.0
2014-Jul-29 07:28N 55°17' E 014°48'0 0.0
2014-Jul-29 06:28N 55°17' E 014°48'0 0.0
2014-Jul-29 05:22N 55°17' E 014°48'0 0.0
2014-Jul-29 04:28N 55°17' E 014°48'0 0.0
2014-Jul-29 03:16N 55°17' E 014°48'0 0.0
2014-Jul-29 02:28N 55°17' E 014°48'0 0.0
2014-Jul-29 01:22N 55°17' E 014°48'0 0.0
2014-Jul-29 00:22N 55°17' E 014°48'0 0.0
2014-Jul-28 23:28N 55°17' E 014°48'0 0.0
2014-Jul-28 22:28N 55°17' E 014°48'0 0.0
2014-Jul-28 21:28N 55°17' E 014°48'0 0.0
2014-Jul-28 20:28N 55°17' E 014°48'0 0.0
2014-Jul-28 19:28N 55°17' E 014°48'0 0.0
2014-Jul-28 18:28N 55°17' E 014°48'0 0.0
2014-Jul-28 17:22N 55°17' E 014°48'0 0.0
2014-Jul-28 16:28N 55°17' E 014°48'2 2.6
2014-Jul-28 15:33N 55°19' E 014°47'2 2.2
2014-Jul-28 14:28N 55°17' E 014°48'0 0.0
2014-Jul-28 13:10N 55°17' E 014°48'0 0.0
2014-Jul-28 12:23N 55°17' E 014°48'0 0.0
2014-Jul-28 11:32N 55°17' E 014°48'0 0.0
2014-Jul-28 10:32N 55°17' E 014°48'0 0.0
2014-Jul-28 09:26N 55°17' E 014°48'0 0.0
2014-Jul-28 08:26N 55°17' E 014°48'0 0.0
2014-Jul-28 07:32N 55°17' E 014°48'3 3.1
2014-Jul-28 06:32N 55°20' E 014°47'3 3.1
2014-Jul-28 05:31N 55°17' E 014°48'0 0.0
2014-Jul-28 04:31N 55°17' E 014°48'0 0.0
2014-Jul-28 03:31N 55°17' E 014°48'0 0.0
2014-Jul-28 02:13N 55°17' E 014°48'0 0.0
2014-Jul-28 01:31N 55°17' E 014°48'0 0.0
2014-Jul-28 00:25N 55°17' E 014°48'0 0.0
2014-Jul-27 23:31N 55°17' E 014°48'0 0.0
2014-Jul-27 22:31N 55°17' E 014°48'0 0.0
2014-Jul-27 21:31N 55°17' E 014°48'0 0.0
2014-Jul-27 20:31N 55°17' E 014°48'0 0.0
2014-Jul-27 19:31N 55°17' E 014°48'0 0.0
2014-Jul-27 18:31N 55°17' E 014°48'0 0.0
2014-Jul-27 17:31N 55°17' E 014°48'0 0.0
2014-Jul-27 16:19N 55°17' E 014°48'0 0.0
2014-Jul-27 15:19N 55°17' E 014°48'0 0.0
2014-Jul-27 14:31N 55°17' E 014°48'0 0.0
2014-Jul-27 13:25N 55°17' E 014°48'0 0.0
2014-Jul-27 12:18N 55°17' E 014°48'0 0.0
2014-Jul-27 11:24N 55°17' E 014°48'0 0.0
2014-Jul-27 10:30N 55°17' E 014°48'0 0.0
2014-Jul-27 09:30N 55°17' E 014°48'0 0.0
2014-Jul-27 08:24N 55°17' E 014°48'0 0.0
2014-Jul-27 07:30N 55°17' E 014°48'0 0.0
2014-Jul-27 06:30N 55°17' E 014°48'0 0.0
2014-Jul-27 05:30N 55°17' E 014°48'0 0.0
2014-Jul-27 04:24N 55°17' E 014°48'0 0.0
2014-Jul-27 03:30N 55°17' E 014°48'0 0.0
2014-Jul-27 02:29N 55°17' E 014°48'0 0.0
2014-Jul-27 01:29N 55°17' E 014°48'0 0.0
2014-Jul-27 00:29N 55°17' E 014°48'0 0.0
2014-Jul-26 23:29N 55°17' E 014°48'2 2.4
2014-Jul-26 22:34N 55°19' E 014°47'2 1.9
2014-Jul-26 21:24N 55°17' E 014°48'3 3.1
2014-Jul-26 20:28N 55°20' E 014°48'3 3.0
2014-Jul-26 19:30N 55°17' E 014°48'0 0.0
2014-Jul-26 18:18N 55°17' E 014°48'0 0.0
2014-Jul-26 17:30N 55°17' E 014°48'0 0.0
2014-Jul-26 16:30N 55°17' E 014°48'0 0.0
2014-Jul-26 15:30N 55°17' E 014°48'0 0.0
2014-Jul-26 14:24N 55°17' E 014°48'0 0.0
2014-Jul-26 13:30N 55°17' E 014°48'4 4.1
2014-Jul-26 12:33N 55°20' E 014°47'4 3.8
2014-Jul-26 11:33N 55°17' E 014°48'3 0.4
2014-Jul-26 02:33N 55°17' E 014°42'2 0.4
2014-Jul-25 21:31N 55°17' E 014°45'1 0.1
2014-Jul-25 11:32N 55°18' E 014°46'2 1.2
2014-Jul-25 10:09N 55°17' E 014°48'0 0.0
2014-Jul-25 08:33N 55°17' E 014°48'0 0.0
2014-Jul-25 07:27N 55°17' E 014°48'0 0.0
2014-Jul-25 06:20N 55°17' E 014°48'0 0.0
2014-Jul-25 05:32N 55°17' E 014°48'0 0.0
2014-Jul-25 04:32N 55°17' E 014°48'1 0.1
2014-Jul-24 18:29N 55°16' E 014°49'1 1.2
2014-Jul-24 17:33N 55°17' E 014°48'1 0.2
2014-Jul-24 11:18N 55°16' E 014°49'2 0.6
2014-Jul-24 07:21N 55°17' E 014°45'0 0.0
2014-Jul-24 06:24N 55°17' E 014°45'0 0.0
2014-Jul-24 05:33N 55°17' E 014°45'0 0.0
2014-Jul-24 04:33N 55°17' E 014°45'0 0.0
2014-Jul-24 03:30N 55°17' E 014°45'0 0.0
2014-Jul-24 02:30N 55°17' E 014°45'0 0.0
2014-Jul-24 01:33N 55°17' E 014°45'0 0.0
2014-Jul-24 00:33N 55°17' E 014°45'0 0.0
2014-Jul-23 23:33N 55°17' E 014°45'0 0.1
2014-Jul-23 22:34N 55°17' E 014°45'0 0.0
2014-Jul-23 20:31N 55°17' E 014°45'0 0.0
2014-Jul-23 19:09N 55°17' E 014°45'0 0.0
2014-Jul-23 08:18N 55°17' E 014°45'0 0.0
2014-Jul-23 00:07N 55°17' E 014°45'0 0.0
2014-Jul-22 22:25N 55°17' E 014°45'1 0.2
2014-Jul-22 19:04N 55°16' E 014°44'2 1.5
2014-Jul-22 17:30N 55°18' E 014°41'2 0.8
2014-Jul-22 15:12N 55°17' E 014°43'1 0.1
2014-Jul-22 06:21N 55°17' E 014°45'0 0.0
2014-Jul-22 00:12N 55°17' E 014°45'0 0.0
2014-Jul-21 22:24N 55°17' E 014°45'0 0.0
2014-Jul-21 21:30N 55°17' E 014°45'2 0.7
2014-Jul-21 18:30N 55°17' E 014°42'2 0.2
2014-Jul-21 05:32N 55°17' E 014°45'0 0.0
2014-Jul-21 04:29N 55°17' E 014°45'0 0.0
2014-Jul-21 03:18N 55°17' E 014°45'0 0.0
2014-Jul-21 02:30N 55°17' E 014°45'0 0.0
2014-Jul-21 01:30N 55°17' E 014°45'0 0.0
2014-Jul-21 00:30N 55°17' E 014°45'0 0.0
2014-Jul-20 23:33N 55°17' E 014°45'0 0.1
2014-Jul-20 21:27N 55°17' E 014°45'0 0.3
2014-Jul-20 20:32N 55°17' E 014°45'1 0.7
2014-Jul-20 19:33N 55°16' E 014°44'1 0.6
2014-Jul-20 18:26N 55°17' E 014°45'2 1.5
2014-Jul-20 17:21N 55°17' E 014°48'0 0.0
2014-Jul-20 16:27N 55°17' E 014°48'0 0.0
2014-Jul-20 15:27N 55°17' E 014°48'0 0.0
2014-Jul-20 14:33N 55°17' E 014°48'0 0.0
2014-Jul-20 13:27N 55°17' E 014°48'0 0.0
2014-Jul-20 12:33N 55°17' E 014°48'0 0.0
2014-Jul-20 11:21N 55°17' E 014°48'4 3.9
2014-Jul-20 10:24N 55°20' E 014°47'4 4.3
2014-Jul-20 09:32N 55°17' E 014°48'0 0.0
2014-Jul-20 08:32N 55°17' E 014°48'0 0.0
2014-Jul-20 07:26N 55°17' E 014°48'0 0.0
2014-Jul-20 05:20N 55°17' E 014°48'0 0.0
2014-Jul-20 04:26N 55°17' E 014°48'0 0.0
2014-Jul-20 03:26N 55°17' E 014°48'0 0.0
2014-Jul-20 02:32N 55°17' E 014°48'0 0.0
2014-Jul-20 01:32N 55°17' E 014°48'0 0.0
2014-Jul-20 00:32N 55°17' E 014°48'0 0.0
2014-Jul-19 23:32N 55°17' E 014°48'0 0.0
2014-Jul-19 22:26N 55°17' E 014°48'0 0.0
2014-Jul-19 21:32N 55°17' E 014°48'0 0.0
2014-Jul-19 20:32N 55°17' E 014°48'0 0.0
2014-Jul-19 19:26N 55°17' E 014°48'0 0.0
2014-Jul-19 18:32N 55°17' E 014°48'0 0.0
2014-Jul-19 17:21N 55°17' E 014°48'1 1.6
2014-Jul-19 16:33N 55°18' E 014°47'2 2.5
2014-Jul-19 15:33N 55°20' E 014°48'4 3.2
2014-Jul-19 14:25N 55°17' E 014°48'0 0.0
2014-Jul-19 13:25N 55°17' E 014°48'0 0.0
2014-Jul-19 12:31N 55°17' E 014°48'0 0.0
2014-Jul-19 11:31N 55°17' E 014°48'0 0.0
2014-Jul-19 10:31N 55°17' E 014°48'  
Track history (hours):
 
Tides and Currents Weather Stations Pressure Air Temp Water Temp Dewpoint Dewpoint Depression Visibility Wind Speed Wind Dir Waves Ship Positions

Mars

Last reported at 2014-Jul-29 10:24 UTC. Time now 2014-Jul-29 10:51 UTC.
Position N 55°17' E 014°48'.

Length 14 m; draft 1.7 m.

Type: Pilot. MMSI: 219001058.

Date/timePositionNaut miles runAvg speedWind from/ knotsBaromVisibWave heightAir tempDewpointWater temp
2014-Jul-29 10:24N 55°17' E 014°48'0 0.0
2014-Jul-29 09:23N 55°17' E 014°48'0 0.0
2014-Jul-29 08:33N 55°17' E 014°48'0 0.0
2014-Jul-29 07:28N 55°17' E 014°48'0 0.0
2014-Jul-29 06:28N 55°17' E 014°48'0 0.0
2014-Jul-29 05:22N 55°17' E 014°48'0 0.0
2014-Jul-29 04:28N 55°17' E 014°48'0 0.0
2014-Jul-29 03:16N 55°17' E 014°48'0 0.0
2014-Jul-29 02:28N 55°17' E 014°48'0 0.0
2014-Jul-29 01:22N 55°17' E 014°48'0 0.0
2014-Jul-29 00:22N 55°17' E 014°48'0 0.0
2014-Jul-28 23:28N 55°17' E 014°48'0 0.0
2014-Jul-28 22:28N 55°17' E 014°48'0 0.0
2014-Jul-28 21:28N 55°17' E 014°48'0 0.0
2014-Jul-28 20:28N 55°17' E 014°48'0 0.0
2014-Jul-28 19:28N 55°17' E 014°48'0 0.0
2014-Jul-28 18:28N 55°17' E 014°48'0 0.0
2014-Jul-28 17:22N 55°17' E 014°48'0 0.0
2014-Jul-28 16:28N 55°17' E 014°48'2 2.6
2014-Jul-28 15:33N 55°19' E 014°47'2 2.2
2014-Jul-28 14:28N 55°17' E 014°48'0 0.0
2014-Jul-28 13:10N 55°17' E 014°48'0 0.0
2014-Jul-28 12:23N 55°17' E 014°48'0 0.0
2014-Jul-28 11:32N 55°17' E 014°48'0 0.0
2014-Jul-28 10:32N 55°17' E 014°48'0 0.0
2014-Jul-28 09:26N 55°17' E 014°48'0 0.0
2014-Jul-28 08:26N 55°17' E 014°48'0 0.0
2014-Jul-28 07:32N 55°17' E 014°48'3 3.1
2014-Jul-28 06:32N 55°20' E 014°47'3 3.1
2014-Jul-28 05:31N 55°17' E 014°48'0 0.0
2014-Jul-28 04:31N 55°17' E 014°48'0 0.0
2014-Jul-28 03:31N 55°17' E 014°48'0 0.0
2014-Jul-28 02:13N 55°17' E 014°48'0 0.0
2014-Jul-28 01:31N 55°17' E 014°48'0 0.0
2014-Jul-28 00:25N 55°17' E 014°48'0 0.0
2014-Jul-27 23:31N 55°17' E 014°48'0 0.0
2014-Jul-27 22:31N 55°17' E 014°48'0 0.0
2014-Jul-27 21:31N 55°17' E 014°48'0 0.0
2014-Jul-27 20:31N 55°17' E 014°48'0 0.0
2014-Jul-27 19:31N 55°17' E 014°48'0 0.0
2014-Jul-27 18:31N 55°17' E 014°48'0 0.0
2014-Jul-27 17:31N 55°17' E 014°48'0 0.0
2014-Jul-27 16:19N 55°17' E 014°48'0 0.0
2014-Jul-27 15:19N 55°17' E 014°48'0 0.0
2014-Jul-27 14:31N 55°17' E 014°48'0 0.0
2014-Jul-27 13:25N 55°17' E 014°48'0 0.0
2014-Jul-27 12:18N 55°17' E 014°48'0 0.0
2014-Jul-27 11:24N 55°17' E 014°48'0 0.0
2014-Jul-27 10:30N 55°17' E 014°48'0 0.0
2014-Jul-27 09:30N 55°17' E 014°48'0 0.0
2014-Jul-27 08:24N 55°17' E 014°48'0 0.0
2014-Jul-27 07:30N 55°17' E 014°48'0 0.0
2014-Jul-27 06:30N 55°17' E 014°48'0 0.0
2014-Jul-27 05:30N 55°17' E 014°48'0 0.0
2014-Jul-27 04:24N 55°17' E 014°48'0 0.0
2014-Jul-27 03:30N 55°17' E 014°48'0 0.0
2014-Jul-27 02:29N 55°17' E 014°48'0 0.0
2014-Jul-27 01:29N 55°17' E 014°48'0 0.0
2014-Jul-27 00:29N 55°17' E 014°48'0 0.0
2014-Jul-26 23:29N 55°17' E 014°48'2 2.4
2014-Jul-26 22:34N 55°19' E 014°47'2 1.9
2014-Jul-26 21:24N 55°17' E 014°48'3 3.1
2014-Jul-26 20:28N 55°20' E 014°48'3 3.0
2014-Jul-26 19:30N 55°17' E 014°48'0 0.0
2014-Jul-26 18:18N 55°17' E 014°48'0 0.0
2014-Jul-26 17:30N 55°17' E 014°48'0 0.0
2014-Jul-26 16:30N 55°17' E 014°48'0 0.0
2014-Jul-26 15:30N 55°17' E 014°48'0 0.0
2014-Jul-26 14:24N 55°17' E 014°48'0 0.0
2014-Jul-26 13:30N 55°17' E 014°48'4 4.1
2014-Jul-26 12:33N 55°20' E 014°47'4 3.8
2014-Jul-26 11:33N 55°17' E 014°48'3 0.4
2014-Jul-26 02:33N 55°17' E 014°42'2 0.4
2014-Jul-25 21:31N 55°17' E 014°45'1 0.1
2014-Jul-25 11:32N 55°18' E 014°46'2 1.2
2014-Jul-25 10:09N 55°17' E 014°48'0 0.0
2014-Jul-25 08:33N 55°17' E 014°48'0 0.0
2014-Jul-25 07:27N 55°17' E 014°48'0 0.0
2014-Jul-25 06:20N 55°17' E 014°48'0 0.0
2014-Jul-25 05:32N 55°17' E 014°48'0 0.0
2014-Jul-25 04:32N 55°17' E 014°48'1 0.1
2014-Jul-24 18:29N 55°16' E 014°49'1 1.2
2014-Jul-24 17:33N 55°17' E 014°48'1 0.2
2014-Jul-24 11:18N 55°16' E 014°49'2 0.6
2014-Jul-24 07:21N 55°17' E 014°45'0 0.0
2014-Jul-24 06:24N 55°17' E 014°45'0 0.0
2014-Jul-24 05:33N 55°17' E 014°45'0 0.0
2014-Jul-24 04:33N 55°17' E 014°45'0 0.0
2014-Jul-24 03:30N 55°17' E 014°45'0 0.0
2014-Jul-24 02:30N 55°17' E 014°45'0 0.0
2014-Jul-24 01:33N 55°17' E 014°45'0 0.0
2014-Jul-24 00:33N 55°17' E 014°45'0 0.0
2014-Jul-23 23:33N 55°17' E 014°45'0 0.1
2014-Jul-23 22:34N 55°17' E 014°45'0 0.0
2014-Jul-23 20:31N 55°17' E 014°45'0 0.0
2014-Jul-23 19:09N 55°17' E 014°45'0 0.0
2014-Jul-23 08:18N 55°17' E 014°45'0 0.0
2014-Jul-23 00:07N 55°17' E 014°45'0 0.0
2014-Jul-22 22:25N 55°17' E 014°45'1 0.2
2014-Jul-22 19:04N 55°16' E 014°44'2 1.5
2014-Jul-22 17:30N 55°18' E 014°41'2 0.8
2014-Jul-22 15:12N 55°17' E 014°43'1 0.1
2014-Jul-22 06:21N 55°17' E 014°45'0 0.0
2014-Jul-22 00:12N 55°17' E 014°45'0 0.0
2014-Jul-21 22:24N 55°17' E 014°45'0 0.0
2014-Jul-21 21:30N 55°17' E 014°45'2 0.7
2014-Jul-21 18:30N 55°17' E 014°42'2 0.2
2014-Jul-21 05:32N 55°17' E 014°45'0 0.0
2014-Jul-21 04:29N 55°17' E 014°45'0 0.0
2014-Jul-21 03:18N 55°17' E 014°45'0 0.0
2014-Jul-21 02:30N 55°17' E 014°45'0 0.0
2014-Jul-21 01:30N 55°17' E 014°45'0 0.0
2014-Jul-21 00:30N 55°17' E 014°45'0 0.0
2014-Jul-20 23:33N 55°17' E 014°45'0 0.1
2014-Jul-20 21:27N 55°17' E 014°45'0 0.3
2014-Jul-20 20:32N 55°17' E 014°45'1 0.7
2014-Jul-20 19:33N 55°16' E 014°44'1 0.6
2014-Jul-20 18:26N 55°17' E 014°45'2 1.5
2014-Jul-20 17:21N 55°17' E 014°48'0 0.0
2014-Jul-20 16:27N 55°17' E 014°48'0 0.0
2014-Jul-20 15:27N 55°17' E 014°48'0 0.0
2014-Jul-20 14:33N 55°17' E 014°48'0 0.0
2014-Jul-20 13:27N 55°17' E 014°48'0 0.0
2014-Jul-20 12:33N 55°17' E 014°48'0 0.0
2014-Jul-20 11:21N 55°17' E 014°48'4 3.9
2014-Jul-20 10:24N 55°20' E 014°47'4 4.3
2014-Jul-20 09:32N 55°17' E 014°48'0 0.0
2014-Jul-20 08:32N 55°17' E 014°48'0 0.0
2014-Jul-20 07:26N 55°17' E 014°48'0 0.0
2014-Jul-20 05:20N 55°17' E 014°48'0 0.0
2014-Jul-20 04:26N 55°17' E 014°48'0 0.0
2014-Jul-20 03:26N 55°17' E 014°48'0 0.0
2014-Jul-20 02:32N 55°17' E 014°48'0 0.0
2014-Jul-20 01:32N 55°17' E 014°48'0 0.0
2014-Jul-20 00:32N 55°17' E 014°48'0 0.0
2014-Jul-19 23:32N 55°17' E 014°48'0 0.0
2014-Jul-19 22:26N 55°17' E 014°48'0 0.0
2014-Jul-19 21:32N 55°17' E 014°48'0 0.0
2014-Jul-19 20:32N 55°17' E 014°48'0 0.0
2014-Jul-19 19:26N 55°17' E 014°48'0 0.0
2014-Jul-19 18:32N 55°17' E 014°48'0 0.0
2014-Jul-19 17:21N 55°17' E 014°48'1 1.6
2014-Jul-19 16:33N 55°18' E 014°47'2 2.5
2014-Jul-19 15:33N 55°20' E 014°48'4 3.2
2014-Jul-19 14:25N 55°17' E 014°48'0 0.0
2014-Jul-19 13:25N 55°17' E 014°48'0 0.0
2014-Jul-19 12:31N 55°17' E 014°48'0 0.0
2014-Jul-19 11:31N 55°17' E 014°48'0 0.0
2014-Jul-19 10:31N 55°17' E 014°48'  

Dump ship's entire track history